Time,TemperatureF,DewpointF,PressureIn,WindDirection,WindDirectionDegrees,WindSpeedMPH,WindSpeedGustMPH,Humidity,HourlyPrecipIn,Conditions,Clouds,dailyrainin,SoftwareType,DateUTC
2013-06-13 00:01:00,35.0,25.0,-100.00,NW,315,2.0,4.0,66,-99.99,,,-99.99,,2013-06-13 07:01:00,
2013-06-13 00:11:00,35.0,25.0,-100.00,NW,315,2.0,4.0,66,-99.99,,,-99.99,,2013-06-13 07:11:00,
2013-06-13 00:22:00,35.0,25.0,-100.00,NW,315,2.0,4.0,66,-99.99,,,-99.99,,2013-06-13 07:22:00,
2013-06-13 00:33:00,35.0,27.0,-100.00,West,270,4.0,9.0,72,-99.99,,,-99.99,,2013-06-13 07:33:00,
2013-06-13 00:42:00,35.0,27.0,-100.00,NW,315,4.0,8.0,71,-99.99,,,-99.99,,2013-06-13 07:42:00,
2013-06-13 00:52:00,34.0,27.0,-100.00,West,270,2.0,6.0,73,-99.99,,,-99.99,,2013-06-13 07:52:00,
2013-06-13 01:01:00,35.0,27.0,-100.00,West,270,4.0,6.0,74,-99.99,,,-99.99,,2013-06-13 08:01:00,
2013-06-13 01:11:00,35.0,27.0,-100.00,West,270,4.0,6.0,74,-99.99,,,-99.99,,2013-06-13 08:11:00,
2013-06-13 01:22:00,35.0,28.0,-100.00,East,90,3.0,9.0,74,-99.99,,,-99.99,,2013-06-13 08:22:00,
2013-06-13 01:32:00,35.0,28.0,-100.00,East,90,3.0,9.0,74,-99.99,,,-99.99,,2013-06-13 08:32:00,
2013-06-13 01:42:00,34.0,28.0,-100.00,North,0,1.0,6.0,77,-99.99,,,-99.99,,2013-06-13 08:42:00,
2013-06-13 01:52:00,34.0,27.0,-100.00,North,0,2.0,6.0,75,-99.99,,,-99.99,,2013-06-13 08:52:00,
2013-06-13 02:01:00,36.0,27.0,-100.00,North,0,3.0,6.0,72,-99.99,,,-99.99,,2013-06-13 09:01:00,
2013-06-13 02:11:00,36.0,27.0,-100.00,North,0,3.0,6.0,72,-99.99,,,-99.99,,2013-06-13 09:11:00,
2013-06-13 02:22:00,35.0,27.0,-100.00,North,0,3.0,4.0,73,-99.99,,,-99.99,,2013-06-13 09:22:00,
2013-06-13 02:32:00,36.0,27.0,-100.00,North,0,1.0,6.0,71,-99.99,,,-99.99,,2013-06-13 09:32:00,
2013-06-13 02:42:00,36.0,27.0,-100.00,North,0,1.0,6.0,71,-99.99,,,-99.99,,2013-06-13 09:42:00,
2013-06-13 02:52:00,36.0,27.0,-100.00,NW,315,2.0,4.0,69,-99.99,,,-99.99,,2013-06-13 09:52:00,
2013-06-13 03:01:00,34.0,27.0,-100.00,West,270,4.0,6.0,75,-99.99,,,-99.99,,2013-06-13 10:01:00,
2013-06-13 03:11:00,34.0,27.0,-100.00,West,270,4.0,6.0,75,-99.99,,,-99.99,,2013-06-13 10:11:00,
2013-06-13 03:22:00,33.0,27.0,-100.00,West,270,4.0,6.0,78,-99.99,,,-99.99,,2013-06-13 10:22:00,
2013-06-13 03:33:00,33.0,27.0,-100.00,West,270,3.0,4.0,78,-99.99,,,-99.99,,2013-06-13 10:33:00,
2013-06-13 03:42:00,33.0,27.0,-100.00,West,270,3.0,4.0,78,-99.99,,,-99.99,,2013-06-13 10:42:00,
2013-06-13 03:53:00,34.0,28.0,-100.00,West,270,3.0,9.0,77,-99.99,,,-99.99,,2013-06-13 10:53:00,
2013-06-13 04:01:00,35.0,29.0,-100.00,NW,315,6.0,11.0,78,-99.99,,,-99.99,,2013-06-13 11:01:00,
2013-06-13 04:11:00,35.0,29.0,-100.00,NW,315,6.0,11.0,78,-99.99,,,-99.99,,2013-06-13 11:11:00,
2013-06-13 04:23:00,35.0,28.0,-100.00,NW,315,7.0,9.0,76,-99.99,,,-99.99,,2013-06-13 11:23:00,
2013-06-13 04:32:00,35.0,28.0,-100.00,NW,315,7.0,9.0,76,-99.99,,,-99.99,,2013-06-13 11:32:00,
2013-06-13 04:42:00,35.0,29.0,-100.00,NW,315,7.0,11.0,78,-99.99,,,-99.99,,2013-06-13 11:42:00,
2013-06-13 04:52:00,34.0,29.0,-100.00,West,270,11.0,17.0,80,-99.99,,,-99.99,,2013-06-13 11:52:00,
2013-06-13 05:01:00,34.0,29.0,-100.00,West,270,6.0,14.0,81,-99.99,,,-99.99,,2013-06-13 12:01:00,
2013-06-13 05:11:00,34.0,29.0,-100.00,West,270,6.0,14.0,81,-99.99,,,-99.99,,2013-06-13 12:11:00,
2013-06-13 05:22:00,34.0,28.0,-100.00,NW,315,4.0,11.0,76,-99.99,,,-99.99,,2013-06-13 12:22:00,
2013-06-13 05:34:00,34.0,28.0,-100.00,NW,315,1.0,8.0,76,-99.99,,,-99.99,,2013-06-13 12:34:00,
2013-06-13 05:42:00,34.0,28.0,-100.00,NW,315,1.0,8.0,76,-99.99,,,-99.99,,2013-06-13 12:42:00,
2013-06-13 05:52:00,34.0,29.0,-100.00,West,270,2.0,7.0,80,-99.99,,,-99.99,,2013-06-13 12:52:00,
2013-06-13 06:01:00,34.0,29.0,-100.00,NW,315,3.0,7.0,82,-99.99,,,-99.99,,2013-06-13 13:01:00,
2013-06-13 06:11:00,34.0,29.0,-100.00,NW,315,3.0,7.0,82,-99.99,,,-99.99,,2013-06-13 13:11:00,
2013-06-13 06:21:00,34.0,29.0,-100.00,NW,315,3.0,7.0,82,-99.99,,,-99.99,,2013-06-13 13:21:00,
2013-06-13 06:32:00,36.0,30.0,-100.00,West,270,10.0,16.0,81,-99.99,,,-99.99,,2013-06-13 13:32:00,
2013-06-13 06:43:00,37.0,30.0,-100.00,East,90,1.0,12.0,77,-99.99,,,-99.99,,2013-06-13 13:43:00,
2013-06-13 06:53:00,37.0,28.0,-100.00,West,270,6.0,14.0,70,-99.99,,,-99.99,,2013-06-13 13:53:00,
2013-06-13 07:01:00,36.0,28.0,-100.00,West,270,9.0,12.0,72,-99.99,,,-99.99,,2013-06-13 14:01:00,
2013-06-13 07:11:00,36.0,28.0,-100.00,West,270,9.0,12.0,72,-99.99,,,-99.99,,2013-06-13 14:11:00,
2013-06-13 07:22:00,36.0,28.0,-100.00,West,270,9.0,12.0,72,-99.99,,,-99.99,,2013-06-13 14:22:00,
2013-06-13 07:33:00,36.0,28.0,-100.00,SW,225,3.0,7.0,73,-99.99,,,-99.99,,2013-06-13 14:33:00,
2013-06-13 07:43:00,36.0,29.0,-100.00,SE,135,1.0,3.0,75,-99.99,,,-99.99,,2013-06-13 14:43:00,
2013-06-13 07:53:00,37.0,29.0,-100.00,NE,45,0.0,1.0,73,-99.99,,,-99.99,,2013-06-13 14:53:00,
2013-06-13 08:01:00,37.0,29.0,-100.00,NE,45,0.0,1.0,73,-99.99,,,-99.99,,2013-06-13 15:01:00,
2013-06-13 08:11:00,37.0,29.0,-100.00,North,0,1.0,2.0,74,-99.99,,,-99.99,,2013-06-13 15:11:00,
2013-06-13 08:21:00,38.0,30.0,-100.00,NW,315,1.0,3.0,72,-99.99,,,-99.99,,2013-06-13 15:21:00,
2013-06-13 08:33:00,38.0,30.0,-100.00,NW,315,1.0,3.0,72,-99.99,,,-99.99,,2013-06-13 15:33:00,
2013-06-13 08:43:00,38.0,30.0,-100.00,West,270,0.0,6.0,73,-99.99,,,-99.99,,2013-06-13 15:43:00,
2013-06-13 08:53:00,37.0,30.0,-100.00,North,0,3.0,7.0,76,-99.99,,,-99.99,,2013-06-13 15:53:00,
2013-06-13 09:01:00,37.0,30.0,-100.00,North,0,3.0,7.0,76,-99.99,,,-99.99,,2013-06-13 16:01:00,
2013-06-13 09:11:00,37.0,30.0,-100.00,NW,315,4.0,12.0,75,-99.99,,,-99.99,,2013-06-13 16:11:00,
2013-06-13 09:22:00,36.0,30.0,-100.00,West,270,8.0,14.0,79,-99.99,,,-99.99,,2013-06-13 16:22:00,
2013-06-13 09:33:00,36.0,30.0,-100.00,West,270,8.0,14.0,79,-99.99,,,-99.99,,2013-06-13 16:33:00,
2013-06-13 09:43:00,36.0,30.0,-100.00,West,270,8.0,11.0,77,-99.99,,,-99.99,,2013-06-13 16:43:00,
2013-06-13 09:53:00,36.0,30.0,-100.00,West,270,9.0,12.0,78,-99.99,,,-99.99,,2013-06-13 16:53:00,
2013-06-13 10:02:00,38.0,31.0,-100.00,West,270,6.0,11.0,75,-99.99,,,-99.99,,2013-06-13 17:02:00,
2013-06-13 10:11:00,38.0,31.0,-100.00,West,270,6.0,11.0,75,-99.99,,,-99.99,,2013-06-13 17:11:00,
2013-06-13 10:24:00,38.0,30.0,-100.00,West,270,4.0,11.0,73,-99.99,,,-99.99,,2013-06-13 17:24:00,
2013-06-13 10:32:00,38.0,30.0,-100.00,West,270,4.0,11.0,73,-99.99,,,-99.99,,2013-06-13 17:32:00,
2013-06-13 10:43:00,40.0,30.0,-100.00,West,270,7.0,14.0,66,-99.99,,,-99.99,,2013-06-13 17:43:00,
2013-06-13 10:53:00,38.0,30.0,-100.00,West,270,9.0,14.0,74,-99.99,,,-99.99,,2013-06-13 17:53:00,
2013-06-13 11:01:00,38.0,30.0,-100.00,West,270,9.0,14.0,74,-99.99,,,-99.99,,2013-06-13 18:01:00,
2013-06-13 11:11:00,37.0,30.0,-100.00,West,270,9.0,15.0,75,-99.99,,,-99.99,,2013-06-13 18:11:00,
2013-06-13 11:22:00,37.0,29.0,-100.00,NW,315,10.0,19.0,73,-99.99,,,-99.99,,2013-06-13 18:22:00,
2013-06-13 11:33:00,37.0,29.0,-100.00,West,270,11.0,17.0,74,-99.99,,,-99.99,,2013-06-13 18:33:00,
2013-06-13 11:43:00,37.0,29.0,-100.00,West,270,11.0,17.0,74,-99.99,,,-99.99,,2013-06-13 18:43:00,
2013-06-13 11:52:00,38.0,29.0,-100.00,NW,315,12.0,16.0,70,-99.99,,,-99.99,,2013-06-13 18:52:00,
2013-06-13 12:01:00,38.0,29.0,-100.00,NW,315,12.0,16.0,70,-99.99,,,-99.99,,2013-06-13 19:01:00,
2013-06-13 12:11:00,37.0,30.0,-100.00,NW,315,8.0,17.0,73,-99.99,,,-99.99,,2013-06-13 19:11:00,
2013-06-13 12:22:00,39.0,30.0,-100.00,West,270,9.0,15.0,70,-99.99,,,-99.99,,2013-06-13 19:22:00,
2013-06-13 12:32:00,39.0,30.0,-100.00,West,270,9.0,15.0,70,-99.99,,,-99.99,,2013-06-13 19:32:00,
2013-06-13 12:43:00,40.0,30.0,-100.00,NW,315,11.0,18.0,67,-99.99,,,-99.99,,2013-06-13 19:43:00,
2013-06-13 12:53:00,44.0,31.0,-100.00,NW,315,6.0,16.0,60,-99.99,,,-99.99,,2013-06-13 19:53:00,
2013-06-13 13:01:00,44.0,31.0,-100.00,NW,315,6.0,16.0,60,-99.99,,,-99.99,,2013-06-13 20:01:00,
2013-06-13 13:11:00,43.0,30.0,-100.00,West,270,8.0,14.0,61,-99.99,,,-99.99,,2013-06-13 20:11:00,
2013-06-13 13:22:00,42.0,31.0,-100.00,West,270,9.0,17.0,64,-99.99,,,-99.99,,2013-06-13 20:22:00,
2013-06-13 13:32:00,44.0,29.0,-100.00,West,270,8.0,17.0,57,-99.99,,,-99.99,,2013-06-13 20:32:00,
2013-06-13 13:43:00,44.0,29.0,-100.00,West,270,8.0,17.0,57,-99.99,,,-99.99,,2013-06-13 20:43:00,
2013-06-13 13:53:00,44.0,31.0,-100.00,West,270,9.0,22.0,60,-99.99,,,-99.99,,2013-06-13 20:53:00,
2013-06-13 14:01:00,44.0,31.0,-100.00,West,270,9.0,22.0,60,-99.99,,,-99.99,,2013-06-13 21:01:00,
2013-06-13 14:11:00,45.0,32.0,-100.00,West,270,9.0,19.0,59,-99.99,,,-99.99,,2013-06-13 21:11:00,
2013-06-13 14:22:00,45.0,32.0,-100.00,NW,315,13.0,17.0,60,-99.99,,,-99.99,,2013-06-13 21:22:00,
2013-06-13 14:33:00,45.0,32.0,-100.00,NW,315,13.0,17.0,60,-99.99,,,-99.99,,2013-06-13 21:33:00,
2013-06-13 14:43:00,44.0,30.0,-100.00,NW,315,12.0,24.0,57,-99.99,,,-99.99,,2013-06-13 21:43:00,
2013-06-13 14:52:00,44.0,31.0,-100.00,NW,315,12.0,22.0,60,-99.99,,,-99.99,,2013-06-13 21:52:00,
2013-06-13 15:01:00,42.0,30.0,-100.00,NW,315,11.0,23.0,62,-99.99,,,-99.99,,2013-06-13 22:01:00,
2013-06-13 15:11:00,42.0,30.0,-100.00,NW,315,11.0,23.0,62,-99.99,,,-99.99,,2013-06-13 22:11:00,
2013-06-13 15:22:00,42.0,30.0,-100.00,NW,315,11.0,23.0,62,-99.99,,,-99.99,,2013-06-13 22:22:00,
2013-06-13 15:32:00,42.0,31.0,-100.00,West,270,13.0,20.0,65,-99.99,,,-99.99,,2013-06-13 22:32:00,
2013-06-13 15:42:00,44.0,31.0,-100.00,NW,315,6.0,21.0,60,-99.99,,,-99.99,,2013-06-13 22:42:00,
2013-06-13 15:52:00,44.0,31.0,-100.00,West,270,12.0,25.0,60,-99.99,,,-99.99,,2013-06-13 22:52:00,
2013-06-13 16:01:00,44.0,31.0,-100.00,West,270,12.0,25.0,60,-99.99,,,-99.99,,2013-06-13 23:01:00,
2013-06-13 16:11:00,42.0,31.0,-100.00,West,270,14.0,28.0,64,-99.99,,,-99.99,,2013-06-13 23:11:00,
2013-06-13 16:22:00,43.0,31.0,-100.00,NW,315,13.0,24.0,60,-99.99,,,-99.99,,2013-06-13 23:22:00,
2013-06-13 16:32:00,43.0,31.0,-100.00,NW,315,13.0,24.0,60,-99.99,,,-99.99,,2013-06-13 23:32:00,
2013-06-13 16:43:00,44.0,30.0,-100.00,West,270,14.0,24.0,59,-99.99,,,-99.99,,2013-06-13 23:43:00,
2013-06-13 16:52:00,44.0,31.0,-100.00,West,270,12.0,29.0,61,-99.99,,,-99.99,,2013-06-13 23:52:00,
2013-06-13 17:01:00,44.0,31.0,-100.00,West,270,12.0,29.0,61,-99.99,,,-99.99,,2013-06-14 00:01:00,
2013-06-13 17:11:00,44.0,30.0,-100.00,West,270,14.0,23.0,58,-99.99,,,-99.99,,2013-06-14 00:11:00,
2013-06-13 17:22:00,43.0,29.0,-100.00,North,0,7.0,26.0,59,-99.99,,,-99.99,,2013-06-14 00:22:00,
2013-06-13 17:33:00,43.0,29.0,-100.00,North,0,7.0,26.0,59,-99.99,,,-99.99,,2013-06-14 00:33:00,
2013-06-13 17:43:00,44.0,31.0,-100.00,NW,315,8.0,16.0,60,-99.99,,,-99.99,,2013-06-14 00:43:00,
2013-06-13 17:53:00,42.0,32.0,-100.00,NW,315,4.0,26.0,67,-99.99,,,-99.99,,2013-06-14 00:53:00,
2013-06-13 18:01:00,42.0,32.0,-100.00,NW,315,4.0,26.0,67,-99.99,,,-99.99,,2013-06-14 01:01:00,
2013-06-13 18:11:00,43.0,31.0,-100.00,West,270,14.0,30.0,62,-99.99,,,-99.99,,2013-06-14 01:11:00,
2013-06-13 18:22:00,43.0,32.0,-100.00,NW,315,11.0,27.0,66,-99.99,,,-99.99,,2013-06-14 01:22:00,
2013-06-13 18:32:00,43.0,32.0,-100.00,NW,315,11.0,27.0,66,-99.99,,,-99.99,,2013-06-14 01:32:00,
2013-06-13 18:43:00,43.0,32.0,-100.00,West,270,6.0,20.0,66,-99.99,,,-99.99,,2013-06-14 01:43:00,
2013-06-13 18:52:00,42.0,32.0,-100.00,West,270,17.0,29.0,67,-99.99,,,-99.99,,2013-06-14 01:52:00,
2013-06-13 19:01:00,42.0,32.0,-100.00,West,270,17.0,29.0,67,-99.99,,,-99.99,,2013-06-14 02:01:00,
2013-06-13 19:11:00,42.0,31.0,-100.00,NW,315,8.0,30.0,65,-99.99,,,-99.99,,2013-06-14 02:11:00,
2013-06-13 19:22:00,41.0,31.0,-100.00,NW,315,12.0,29.0,69,-99.99,,,-99.99,,2013-06-14 02:22:00,
2013-06-13 19:32:00,41.0,31.0,-100.00,NW,315,12.0,29.0,69,-99.99,,,-99.99,,2013-06-14 02:32:00,
2013-06-13 19:43:00,40.0,31.0,-100.00,North,0,6.0,20.0,72,-99.99,,,-99.99,,2013-06-14 02:43:00,
2013-06-13 19:52:00,40.0,32.0,-100.00,NE,45,3.0,24.0,71,-99.99,,,-99.99,,2013-06-14 02:52:00,
2013-06-13 20:02:00,39.0,32.0,-100.00,NW,315,9.0,23.0,75,-99.99,,,-99.99,,2013-06-14 03:02:00,
2013-06-13 20:11:00,39.0,32.0,-100.00,NW,315,9.0,23.0,75,-99.99,,,-99.99,,2013-06-14 03:11:00,
2013-06-13 20:22:00,38.0,30.0,-100.00,NW,315,10.0,21.0,73,-99.99,,,-99.99,,2013-06-14 03:22:00,
2013-06-13 20:34:00,38.0,30.0,-100.00,NW,315,10.0,21.0,73,-99.99,,,-99.99,,2013-06-14 03:34:00,
2013-06-13 20:43:00,38.0,30.0,-100.00,NW,315,12.0,23.0,75,-99.99,,,-99.99,,2013-06-14 03:43:00,
2013-06-13 20:53:00,38.0,30.0,-100.00,NW,315,8.0,12.0,75,-99.99,,,-99.99,,2013-06-14 03:53:00,
2013-06-13 21:01:00,37.0,31.0,-100.00,NW,315,4.0,16.0,80,-99.99,,,-99.99,,2013-06-14 04:01:00,
2013-06-13 21:12:00,37.0,31.0,-100.00,NW,315,4.0,16.0,80,-99.99,,,-99.99,,2013-06-14 04:12:00,
2013-06-13 21:22:00,36.0,31.0,-100.00,West,270,5.0,12.0,80,-99.99,,,-99.99,,2013-06-14 04:22:00,
2013-06-13 21:33:00,36.0,31.0,-100.00,West,270,5.0,12.0,80,-99.99,,,-99.99,,2013-06-14 04:33:00,
2013-06-13 21:43:00,37.0,31.0,-100.00,West,270,9.0,12.0,79,-99.99,,,-99.99,,2013-06-14 04:43:00,
2013-06-13 21:53:00,37.0,31.0,-100.00,West,270,7.0,12.0,78,-99.99,,,-99.99,,2013-06-14 04:53:00,
2013-06-13 22:01:00,36.0,31.0,-100.00,West,270,7.0,15.0,79,-99.99,,,-99.99,,2013-06-14 05:01:00,
2013-06-13 22:11:00,36.0,31.0,-100.00,West,270,7.0,15.0,79,-99.99,,,-99.99,,2013-06-14 05:11:00,
2013-06-13 22:22:00,36.0,29.0,-100.00,NW,315,5.0,11.0,75,-99.99,,,-99.99,,2013-06-14 05:22:00,
2013-06-13 22:33:00,36.0,29.0,-100.00,NW,315,5.0,11.0,75,-99.99,,,-99.99,,2013-06-14 05:33:00,
2013-06-13 22:43:00,37.0,29.0,-100.00,NW,315,6.0,10.0,74,-99.99,,,-99.99,,2013-06-14 05:43:00,
2013-06-13 22:52:00,36.0,29.0,-100.00,NW,315,6.0,9.0,74,-99.99,,,-99.99,,2013-06-14 05:52:00,
2013-06-13 23:02:00,37.0,29.0,-100.00,NW,315,7.0,12.0,73,-99.99,,,-99.99,,2013-06-14 06:02:00,
2013-06-13 23:12:00,37.0,29.0,-100.00,NW,315,7.0,12.0,73,-99.99,,,-99.99,,2013-06-14 06:12:00,
2013-06-13 23:22:00,37.0,29.0,-100.00,NW,315,6.0,13.0,72,-99.99,,,-99.99,,2013-06-14 06:22:00,
2013-06-13 23:33:00,37.0,29.0,-100.00,NW,315,6.0,14.0,73,-99.99,,,-99.99,,2013-06-14 06:33:00,
2013-06-13 23:43:00,37.0,29.0,-100.00,NW,315,6.0,14.0,73,-99.99,,,-99.99,,2013-06-14 06:43:00,
2013-06-13 23:52:00,37.0,30.0,-100.00,NW,315,7.0,12.0,75,-99.99,,,-99.99,,2013-06-14 06:52:00,